Time;durP1;ratioP1;P1;durP2;ratioP2;P2;SDS_P1;SDS_P2;PMS_P1;PMS_P2;Temp;Humidity;BMP_temperature;BMP_pressure;BME280_temperature;BME280_humidity;BME280_pressure;Samples;Min_cycle;Max_cycle;Signal;HPM_P1;HPM_P2
2023/04/13 00:01:17;;;;;;;5.17;2.10;;;;;;;11.31;44.08;98586.00;5115459;27;20551;-57
2023/04/13 00:07:29;;;;;;;1.93;1.80;;;;;;;11.17;44.72;98588.41;5116242;27;20230;-48
2023/04/13 00:10:43;;;;;;;1.73;1.60;;;;;;;11.09;45.04;98588.72;5119989;27;20644;-48
2023/04/13 00:13:24;;;;;;;1.80;1.70;;;;;;;11.11;45.53;98580.88;5118846;27;20187;-48
2023/04/13 00:16:18;;;;;;;2.47;1.87;;;;;;;11.07;45.79;98592.31;5113397;27;20307;-56
2023/04/13 00:19:11;;;;;;;3.07;2.00;;;;;;;10.88;46.56;98587.94;5117558;28;20584;-56
2023/04/13 00:22:00;;;;;;;2.77;1.83;;;;;;;10.71;46.71;98587.88;5119205;28;20734;-49
2023/04/13 00:24:53;;;;;;;3.53;2.40;;;;;;;10.72;46.97;98586.94;5120910;27;20193;-48
2023/04/13 00:27:38;;;;;;;2.00;1.90;;;;;;;10.74;47.05;98598.09;5117276;28;20816;-56
2023/04/13 00:30:40;;;;;;;4.30;2.30;;;;;;;10.67;46.79;98591.50;5115920;28;20282;-48
2023/04/13 00:33:38;;;;;;;;;;;;;;;;;;;;;
2023/04/13 00:39:45;;;;;;;2.20;2.00;;;;;;;10.50;47.34;98601.75;5115092;28;21224;-48
2023/04/13 00:45:40;;;;;;;4.67;2.10;;;;;;;10.41;47.60;98596.97;5117185;28;20207;-48
2023/04/13 00:48:30;;;;;;;4.20;2.43;;;;;;;10.29;47.53;98605.25;5117946;28;20216;-48
2023/04/13 00:51:32;;;;;;;2.60;2.10;;;;;;;10.30;47.90;98596.56;5119246;28;20202;-48
2023/04/13 00:54:38;;;;;;;2.23;2.03;;;;;;;10.23;47.26;98600.34;5119330;28;20194;-48
2023/04/13 00:57:26;;;;;;;5.10;2.33;;;;;;;10.22;47.42;98602.09;5115877;28;20268;-48
2023/04/13 01:00:24;;;;;;;3.30;1.90;;;;;;;10.15;48.19;98604.09;5122573;27;20585;-48
2023/04/13 01:03:19;;;;;;;2.47;2.00;;;;;;;10.14;47.45;98604.16;5122651;27;20689;-48
2023/04/13 01:06:18;;;;;;;1.87;1.77;;;;;;;10.05;48.09;98607.09;5120958;27;20198;-48
2023/04/13 01:09:16;;;;;;;2.50;2.17;;;;;;;10.00;48.33;98611.63;5119874;27;20222;-55
2023/04/13 01:12:19;;;;;;;4.50;2.43;;;;;;;9.95;48.91;98605.78;5120345;27;20244;-56
2023/04/13 01:15:18;;;;;;;2.63;2.40;;;;;;;9.90;48.50;98608.59;5121447;27;20190;-56
2023/04/13 01:18:08;;;;;;;2.73;2.53;;;;;;;9.89;49.06;98617.25;5122981;27;20193;-57
2023/04/13 01:21:06;;;;;;;3.37;2.60;;;;;;;9.80;48.77;98613.28;5116998;27;20195;-56
2023/04/13 01:24:19;;;;;;;;;;;;;;;;;;;;;
2023/04/13 01:27:21;;;;;;;2.43;2.23;;;;;;;9.70;49.16;98621.50;5121542;27;20195;-57
2023/04/13 01:29:58;;;;;;;2.30;2.10;;;;;;;9.69;49.35;98617.22;5117610;27;20251;-56
2023/04/13 01:35:42;;;;;;;3.00;2.30;;;;;;;9.73;49.30;98621.34;5120883;27;20592;-56
2023/04/13 01:38:39;;;;;;;2.67;2.47;;;;;;;9.75;49.42;98617.81;5122038;27;20190;-55
2023/04/13 01:44:24;;;;;;;3.03;2.77;;;;;;;9.66;49.05;98614.75;5119771;27;20198;-57
2023/04/13 01:47:20;;;;;;;5.17;2.50;;;;;;;9.67;48.78;98613.84;5123071;27;20198;-56
2023/04/13 01:50:16;;;;;;;3.13;2.43;;;;;;;9.64;48.60;98624.31;5121157;27;20187;-56
2023/04/13 01:53:02;;;;;;;4.53;3.50;;;;;;;9.63;48.67;98625.22;5115681;27;20687;-56
2023/04/13 01:55:57;;;;;;;2.60;2.40;;;;;;;9.58;48.96;98627.16;5116573;27;20221;-56
2023/04/13 01:58:48;;;;;;;3.40;3.10;;;;;;;9.52;48.87;98627.38;5118101;27;20278;-56
2023/04/13 02:04:41;;;;;;;2.80;2.60;;;;;;;9.33;49.43;98632.44;5121196;27;20236;-48
2023/04/13 02:07:32;;;;;;;5.60;3.00;;;;;;;9.26;49.86;98631.78;5122171;27;20713;-55
2023/04/13 02:10:26;;;;;;;4.57;2.90;;;;;;;9.22;50.13;98630.25;5122029;27;20284;-56
2023/04/13 02:13:14;;;;;;;5.53;2.63;;;;;;;9.23;49.44;98626.75;5124554;27;20191;-47
2023/04/13 02:15:56;;;;;;;3.00;2.80;;;;;;;9.16;49.98;98635.63;5118730;27;20194;-57
2023/04/13 02:21:47;;;;;;;3.30;2.30;;;;;;;8.96;49.80;98643.28;5121316;27;20209;-48
2023/04/13 02:24:38;;;;;;;2.70;2.50;;;;;;;8.89;50.24;98642.69;5120674;27;20653;-48
2023/04/13 02:27:23;;;;;;;5.07;2.43;;;;;;;8.84;49.88;98630.78;5118746;27;20191;-48
2023/04/13 02:30:22;;;;;;;;;;;;;;;;;;;;;
2023/04/13 02:33:30;;;;;;;3.80;2.73;;;;;;;8.82;50.57;98636.00;5120778;27;20190;-55
2023/04/13 02:36:11;;;;;;;2.57;2.37;;;;;;;8.81;50.53;98625.72;5119120;27;20195;-57
2023/04/13 02:39:13;;;;;;;;;;;;;;;;;;;;;
2023/04/13 02:41:50;;;;;;;5.87;2.60;;;;;;;8.82;51.85;98630.00;5124703;27;20201;-56
2023/04/13 02:44:29;;;;;;;3.90;2.23;;;;;;;8.84;50.99;98628.19;5124379;27;20579;-56
2023/04/13 02:47:08;;;;;;;3.13;2.40;;;;;;;8.83;51.01;98631.69;5124287;27;20221;-57
2023/04/13 02:49:51;;;;;;;3.53;2.30;;;;;;;8.95;50.46;98641.59;5120717;27;20621;-56
2023/04/13 02:52:45;;;;;;;2.23;2.13;;;;;;;9.05;50.86;98641.19;5123006;27;20277;-55
2023/04/13 02:55:42;;;;;;;2.60;1.97;;;;;;;9.03;49.71;98648.19;5118279;27;20201;-47
2023/04/13 02:58:44;;;;;;;2.40;2.27;;;;;;;8.98;50.21;98647.53;5120949;27;20183;-47
2023/04/13 03:01:32;;;;;;;2.33;2.13;;;;;;;8.90;50.40;98630.59;5119757;27;20194;-49
2023/04/13 03:04:20;;;;;;;6.50;2.17;;;;;;;9.08;50.46;98653.19;5114451;27;20195;-57
2023/04/13 03:07:08;;;;;;;2.20;2.00;;;;;;;9.08;49.76;98653.19;5105620;28;20241;-55
2023/04/13 03:10:00;;;;;;;2.43;2.23;;;;;;;9.02;50.03;98653.44;5108940;28;20218;-57
2023/04/13 03:12:59;;;;;;;2.40;2.20;;;;;;;9.04;50.04;98659.38;5110049;28;20285;-57
2023/04/13 03:16:00;;;;;;;6.70;2.50;;;;;;;9.04;50.03;98659.38;5110001;28;20574;-56
2023/04/13 03:18:50;;;;;;;4.93;3.00;;;;;;;9.06;49.62;98660.16;5110197;28;20198;-56
2023/04/13 03:21:35;;;;;;;3.43;2.93;;;;;;;9.02;50.12;98656.03;5105540;28;20221;-48
2023/04/13 03:24:36;;;;;;;;;;;;;;;;;;;;;
2023/04/13 03:27:22;;;;;;;3.20;2.87;;;;;;;9.08;50.27;98660.97;5118691;27;20697;-56
2023/04/13 03:30:21;;;;;;;3.40;3.10;;;;;;;9.01;50.35;98659.50;5119317;27;20281;-56
2023/04/13 03:33:12;;;;;;;4.80;3.40;;;;;;;8.98;50.27;98672.56;5117877;27;20236;-56
2023/04/13 03:36:00;;;;;;;4.13;3.10;;;;;;;8.99;49.94;98669.06;5121417;27;20197;-56
2023/04/13 03:38:58;;;;;;;6.80;3.20;;;;;;;8.89;50.52;98671.13;5109400;28;20194;-56
2023/04/13 03:41:26;;;;;;;7.07;3.57;;;;;;;8.81;50.61;98669.69;5109411;28;20203;-56
2023/04/13 03:44:15;;;;;;;6.17;3.97;;;;;;;8.82;50.79;98671.38;5109044;28;20194;-56
2023/04/13 03:46:53;;;;;;;7.23;3.70;;;;;;;8.91;50.04;98673.69;5115071;27;20232;-55
2023/04/13 03:49:34;;;;;;;4.43;3.70;;;;;;;8.91;49.92;98671.09;5108826;28;20363;-55
2023/04/13 03:52:10;;;;;;;4.33;3.20;;;;;;;8.90;49.26;98680.59;5108705;28;20218;-56
2023/04/13 03:54:52;;;;;;;3.43;2.90;;;;;;;8.92;49.14;98683.94;5108236;28;20310;-55
2023/04/13 03:57:36;;;;;;;5.75;3.03;;;;;;;8.90;49.51;98684.94;5105485;28;20530;-48
2023/04/13 04:00:34;;;;;;;3.23;2.93;;;;;;;8.72;49.94;98666.53;5108406;28;20218;-48
2023/04/13 04:03:23;;;;;;;2.67;2.47;;;;;;;8.93;49.48;98693.41;5118227;27;20218;-49
2023/04/13 04:05:56;;;;;;;3.80;2.87;;;;;;;9.00;49.03;98686.28;5107748;28;20245;-48
2023/04/13 04:08:38;;;;;;;2.77;2.53;;;;;;;9.07;48.52;98696.34;5107566;28;20314;-47
2023/04/13 04:11:35;;;;;;;2.70;2.50;;;;;;;9.09;48.50;98691.13;5119614;27;20194;-47
2023/04/13 04:14:37;;;;;;;3.10;2.80;;;;;;;9.17;48.67;98696.03;5108458;28;20210;-47
2023/04/13 04:20:09;;;;;;;2.77;2.13;;;;;;;9.46;47.14;98701.84;5108049;28;20287;-49
2023/04/13 04:22:47;;;;;;;3.90;2.70;;;;;;;9.60;47.03;98714.25;5117524;28;20633;-48
2023/04/13 04:25:30;;;;;;;3.40;3.10;;;;;;;9.95;46.70;98722.44;5117905;28;20187;-49
2023/04/13 04:28:16;;;;;;;5.67;3.43;;;;;;;10.78;45.07;98728.59;5115816;28;20187;-56
2023/04/13 04:30:59;;;;;;;3.70;3.30;;;;;;;12.66;42.50;98722.47;5119466;28;20222;-56
2023/04/13 04:33:34;;;;;;;3.20;2.90;;;;;;;14.91;37.90;98727.63;5121009;27;20228;-56
2023/04/13 04:36:16;;;;;;;4.03;2.83;;;;;;;17.01;34.15;98741.38;5112223;28;20224;-56
2023/04/13 04:38:48;;;;;;;6.23;3.10;;;;;;;19.18;31.18;98752.94;5112967;28;20218;-56
2023/04/13 04:41:19;;;;;;;4.93;2.80;;;;;;;20.76;28.17;98758.81;5122141;27;20295;-57
2023/04/13 04:43:56;;;;;;;5.60;3.33;;;;;;;21.55;27.13;98746.03;5124169;27;20708;-57
2023/04/13 04:46:37;;;;;;;4.75;3.30;;;;;;;22.23;26.70;98758.53;5124106;27;20189;-58
2023/04/13 04:49:27;;;;;;;4.50;3.05;;;;;;;23.08;25.62;98766.66;5124057;27;20210;-57
2023/04/13 04:52:21;;;;;;;4.63;3.20;;;;;;;23.52;24.61;98770.50;5121076;27;20191;-57
2023/04/13 04:55:08;;;;;;;4.90;3.53;;;;;;;24.72;23.91;98775.75;5118135;27;20193;-57
2023/04/13 04:57:50;;;;;;;6.72;3.50;;;;;;;25.52;22.94;98764.09;5122464;27;20263;-57
2023/04/13 05:00:40;;;;;;;10.07;3.40;;;;;;;26.41;21.65;98766.41;5122723;27;20597;-57
2023/04/13 05:03:10;;;;;;;4.47;3.47;;;;;;;27.60;21.20;98767.59;5124690;27;20186;-57
2023/04/13 05:06:00;;;;;;;4.43;3.80;;;;;;;28.59;19.95;98775.03;5129151;27;20229;-58
2023/04/13 05:09:02;;;;;;;4.75;3.30;;;;;;;28.88;19.63;98778.72;5132823;27;20226;-58
2023/04/13 05:11:40;;;;;;;4.38;3.47;;;;;;;29.22;19.23;98774.75;5134186;27;20189;-57
2023/04/13 05:14:34;;;;;;;4.22;3.65;;;;;;;29.33;18.94;98777.00;5133987;27;20198;-58
2023/04/13 05:17:34;;;;;;;;;;;;;;;;;;;;;
2023/04/13 05:20:26;;;;;;;7.80;3.40;;;;;;;29.26;19.19;98781.38;5128902;27;20193;-58
2023/04/13 05:23:15;;;;;;;3.55;3.22;;;;;;;30.01;18.80;98784.00;5134334;27;20198;-58
2023/04/13 05:26:06;;;;;;;3.80;3.50;;;;;;;30.08;18.81;98789.44;5134561;27;20284;-58
2023/04/13 05:28:54;;;;;;;4.10;3.80;;;;;;;30.06;18.57;98789.63;5133565;27;20220;-50
2023/04/13 05:31:33;;;;;;;5.13;3.70;;;;;;;29.64;18.57;98792.09;5133274;27;20311;-50
2023/04/13 05:34:36;;;;;;;4.95;3.55;;;;;;;28.71;19.13;98793.16;5133635;27;20240;-49
2023/04/13 05:37:27;;;;;;;4.70;4.32;;;;;;;28.97;19.36;98786.66;5130825;27;20202;-49
2023/04/13 05:40:15;;;;;;;4.32;4.03;;;;;;;29.11;19.11;98781.38;5127574;27;20190;-50
2023/04/13 05:42:55;;;;;;;5.88;4.07;;;;;;;27.75;19.96;98781.91;5133498;27;20674;-51
2023/04/13 05:45:36;;;;;;;4.40;4.00;;;;;;;28.59;19.77;98778.53;5111790;27;20205;-50
2023/04/13 05:48:31;;;;;;;4.32;3.92;;;;;;;29.45;18.95;98783.59;5110350;28;20286;-50
2023/04/13 05:51:15;;;;;;;4.65;3.92;;;;;;;30.17;18.23;98780.28;5121062;27;20702;-50
2023/04/13 05:54:12;;;;;;;4.20;3.80;;;;;;;30.95;17.64;98792.91;5133175;27;20673;-51
2023/04/13 05:57:00;;;;;;;12.45;8.40;;;;;;;29.03;18.41;98785.94;5132549;27;20193;-58
2023/04/13 06:02:40;;;;;;;14.20;10.20;;;;;;;26.94;19.75;98782.81;5116812;27;20294;-60
2023/04/13 06:05:21;;;;;;;10.82;9.75;;;;;;;27.76;19.70;98779.06;5112534;28;20736;-57
2023/04/13 06:08:01;;;;;;;19.42;15.25;;;;;;;27.18;19.82;98783.81;5112114;28;20618;-58
2023/04/13 06:10:51;;;;;;;27.95;17.58;;;;;;;26.31;20.50;98785.97;5112091;28;20230;-58
2023/04/13 06:13:42;;;;;;;26.25;16.92;;;;;;;26.35;21.03;98775.84;5111659;28;20199;-58
2023/04/13 06:19:13;;;;;;;24.02;15.25;;;;;;;29.10;19.04;98770.84;5112055;28;20281;-62
2023/04/13 06:22:07;;;;;;;24.10;14.65;;;;;;;29.88;17.99;98778.44;5110752;28;20198;-58
2023/04/13 06:27:42;;;;;;;15.27;12.00;;;;;;;28.69;18.67;98772.97;5110532;28;20198;-50
2023/04/13 06:30:35;;;;;;;18.95;11.75;;;;;;;30.17;18.04;98786.47;5111389;28;20230;-60
2023/04/13 06:33:34;;;;;;;12.95;9.55;;;;;;;29.81;17.76;98788.22;5111907;28;20198;-50
2023/04/13 06:36:31;;;;;;;12.80;9.82;;;;;;;28.95;18.02;98781.50;5110811;28;20198;-49
2023/04/13 06:39:23;;;;;;;13.27;8.40;;;;;;;28.81;18.30;98785.75;5110956;28;20191;-50
2023/04/13 06:42:15;;;;;;;10.88;8.77;;;;;;;29.90;17.52;98781.78;5111386;28;20286;-51
2023/04/13 06:45:03;;;;;;;10.63;8.25;;;;;;;30.61;17.27;98786.41;5111443;28;20251;-49
2023/04/13 06:48:01;;;;;;;12.45;7.47;;;;;;;31.01;17.07;98793.00;5109957;28;20225;-50
2023/04/13 06:50:43;;;;;;;14.48;7.30;;;;;;;31.80;16.18;98786.63;5104468;28;20219;-49
2023/04/13 06:53:30;;;;;;;9.75;6.75;;;;;;;31.48;16.48;98786.19;5112340;27;20205;-50
2023/04/13 06:56:00;;;;;;;16.38;8.70;;;;;;;31.96;16.38;98786.28;5118937;27;20208;-50
2023/04/13 06:58:34;;;;;;;9.95;6.97;;;;;;;32.47;16.28;98789.44;5117386;27;20234;-59
2023/04/13 07:01:20;;;;;;;12.45;9.52;;;;;;;31.94;15.94;98788.38;5117275;27;20655;-59
2023/04/13 07:03:58;;;;;;;7.20;5.75;;;;;;;32.00;16.25;98771.47;5118790;27;20818;-60
2023/04/13 07:06:36;;;;;;;7.25;6.60;;;;;;;32.10;16.02;98782.66;5119753;27;20267;-57
2023/04/13 07:09:07;;;;;;;7.15;5.63;;;;;;;32.63;16.19;98786.38;5109218;28;20253;-60
2023/04/13 07:11:38;;;;;;;7.05;5.10;;;;;;;32.36;15.79;98779.28;5107757;28;20597;-59
2023/04/13 07:14:11;;;;;;;8.52;5.68;;;;;;;32.15;16.06;98782.91;5109789;28;20220;-59
2023/04/13 07:16:44;;;;;;;6.78;5.80;;;;;;;31.62;16.16;98777.19;5118164;27;20214;-59
2023/04/13 07:19:24;;;;;;;7.40;5.38;;;;;;;32.32;15.81;98775.34;5118627;27;20316;-51
2023/04/13 07:22:04;;;;;;;7.25;6.03;;;;;;;33.30;15.47;98779.28;5106867;28;20789;-51
2023/04/13 07:24:51;;;;;;;8.98;6.90;;;;;;;32.54;15.42;98784.09;5112454;27;20195;-59
2023/04/13 07:27:25;;;;;;;7.75;4.95;;;;;;;32.79;15.74;98777.16;5118416;27;20213;-59
2023/04/13 07:30:14;;;;;;;8.05;6.03;;;;;;;33.11;15.41;98775.53;5118256;27;20221;-60
2023/04/13 07:32:48;;;;;;;6.40;5.40;;;;;;;33.52;14.94;98778.03;5118180;27;20195;-50
2023/04/13 07:35:19;;;;;;;7.68;6.25;;;;;;;32.00;15.55;98771.47;5116275;27;20652;-50
2023/04/13 07:37:51;;;;;;;5.78;5.07;;;;;;;31.19;16.33;98765.75;5118472;27;20219;-51
2023/04/13 07:40:31;;;;;;;5.15;4.65;;;;;;;31.30;15.60;98762.53;5117331;27;20271;-51
2023/04/13 07:43:08;;;;;;;5.90;4.68;;;;;;;31.79;15.74;98761.66;5117159;27;20218;-51
2023/04/13 07:45:59;;;;;;;4.53;4.10;;;;;;;31.66;15.62;98765.09;5118299;27;20267;-50
2023/04/13 07:51:50;;;;;;;3.97;3.20;;;;;;;31.44;14.85;98760.78;5112320;27;20673;-50
2023/04/13 07:54:39;;;;;;;6.72;3.20;;;;;;;32.37;14.67;98759.47;5117062;27;20199;-50
2023/04/13 07:57:26;;;;;;;3.25;3.00;;;;;;;33.29;13.98;98758.81;5118360;27;20731;-51
2023/04/13 08:00:12;;;;;;;5.07;2.90;;;;;;;33.26;13.95;98756.53;5119189;27;20221;-49
2023/04/13 08:02:57;;;;;;;3.55;3.25;;;;;;;34.13;13.08;98753.44;5118490;27;20636;-51
2023/04/13 08:05:44;;;;;;;4.43;3.65;;;;;;;33.58;12.85;98757.53;5117850;27;20195;-50
2023/04/13 08:08:42;;;;;;;3.67;3.22;;;;;;;34.42;12.77;98754.81;5118414;27;20237;-50
2023/04/13 08:11:42;;;;;;;3.60;3.10;;;;;;;35.41;12.05;98754.13;5106209;28;20186;-52
2023/04/13 08:14:32;;;;;;;3.47;3.13;;;;;;;35.91;11.96;98752.97;5107632;28;20187;-51
2023/04/13 08:20:21;;;;;;;4.35;3.72;;;;;;;35.79;11.81;98751.25;5119964;27;20210;-52
2023/04/13 08:23:24;;;;;;;;;;;;;;;;;;;;;
2023/04/13 08:25:52;;;;;;;3.90;3.67;;;;;;;35.35;12.00;98745.03;5111313;28;20200;-49
2023/04/13 08:28:43;;;;;;;4.15;3.17;;;;;;;34.21;12.65;98745.09;5125203;28;20569;-58
2023/04/13 08:31:42;;;;;;;3.35;3.15;;;;;;;35.17;12.10;98735.00;5130731;28;20190;-59
2023/04/13 08:34:39;;;;;;;2.88;2.60;;;;;;;36.57;11.36;98732.41;5130614;28;20201;-58
2023/04/13 08:37:23;;;;;;;4.20;3.75;;;;;;;36.77;11.06;98729.44;5130262;28;20201;-51
2023/04/13 08:40:14;;;;;;;3.75;3.53;;;;;;;37.67;10.78;98722.69;5130486;28;20215;-50
2023/04/13 08:43:04;;;;;;;3.97;3.00;;;;;;;37.79;10.85;98723.50;5130139;28;20205;-58
2023/04/13 08:45:57;;;;;;;9.02;2.95;;;;;;;37.18;11.28;98729.38;5129501;28;20200;-50
2023/04/13 08:48:48;;;;;;;3.65;3.35;;;;;;;37.08;11.68;98721.81;5126812;28;20284;-49
2023/04/13 08:51:37;;;;;;;3.40;2.70;;;;;;;36.25;11.45;98723.69;5130991;28;20669;-49
2023/04/13 08:54:25;;;;;;;3.28;3.10;;;;;;;35.43;12.13;98711.53;5130364;28;20194;-49
2023/04/13 08:57:10;;;;;;;4.00;3.30;;;;;;;35.88;11.95;98715.63;5128802;28;20193;-58
2023/04/13 09:08:45;;;;;;;2.97;2.72;;;;;;;35.61;12.33;98704.28;5127284;28;20313;-51
2023/04/13 09:11:40;;;;;;;3.10;2.90;;;;;;;36.92;11.45;98705.44;5128967;28;20276;-52
2023/04/13 09:17:47;;;;;;;;;;;;;;;;;;;;;
2023/04/13 09:20:49;;;;;;;3.65;3.40;;;;;;;38.21;11.26;98700.75;5132179;27;20224;-50
2023/04/13 09:23:44;;;;;;;5.00;3.03;;;;;;;37.03;11.50;98701.94;5132934;27;20581;-58
2023/04/13 09:26:37;;;;;;;3.63;3.17;;;;;;;35.13;12.37;98703.28;5132242;27;20208;-58
2023/04/13 09:29:23;;;;;;;3.88;3.55;;;;;;;34.67;12.72;98696.34;5133676;27;20194;-59
2023/04/13 09:32:26;;;;;;;;;;;;;;;;;;;;;
2023/04/13 09:35:19;;;;;;;4.97;3.17;;;;;;;33.72;12.87;98681.91;5128630;27;20201;-50
2023/04/13 09:38:16;;;;;;;3.47;3.28;;;;;;;33.88;13.41;98678.75;5133637;27;20193;-55
2023/04/13 09:40:58;;;;;;;2.95;2.67;;;;;;;35.07;12.64;98674.50;5119147;27;20287;-52
2023/04/13 09:43:48;;;;;;;3.42;3.22;;;;;;;35.15;12.88;98677.72;5111987;28;20681;-51
2023/04/13 09:46:41;;;;;;;3.90;2.80;;;;;;;34.52;12.96;98675.13;5112875;28;20202;-51
2023/04/13 09:49:12;;;;;;;3.78;3.22;;;;;;;34.97;12.95;98668.78;5112696;28;20209;-51
2023/04/13 09:51:51;;;;;;;3.72;3.47;;;;;;;35.90;12.69;98672.16;5110188;28;20194;-50
2023/04/13 09:54:53;;;;;;;3.70;3.50;;;;;;;35.61;12.77;98671.88;5117877;27;20254;-50
2023/04/13 09:57:47;;;;;;;3.97;3.63;;;;;;;36.08;12.45;98671.31;5133006;27;20634;-51
2023/04/13 10:00:35;;;;;;;3.75;3.42;;;;;;;36.44;12.57;98665.84;5129192;27;20209;-51
2023/04/13 10:03:20;;;;;;;3.17;2.92;;;;;;;34.39;13.41;98658.22;5118261;27;20693;-59
2023/04/13 10:06:12;;;;;;;3.55;3.35;;;;;;;31.78;15.17;98646.47;5111346;28;20309;-59
2023/04/13 10:08:51;;;;;;;3.83;3.53;;;;;;;29.10;16.73;98645.25;5116570;27;20306;-59
2023/04/13 10:11:44;;;;;;;7.88;2.70;;;;;;;27.55;18.36;98636.63;5120365;27;20277;-58
2023/04/13 10:14:28;;;;;;;3.90;2.63;;;;;;;26.71;19.10;98624.69;5119422;27;20194;-59
2023/04/13 10:17:26;;;;;;;2.90;2.60;;;;;;;26.12;19.82;98616.00;5121886;27;20642;-57
2023/04/13 10:20:25;;;;;;;;;;;;;;;;;;;;;
2023/04/13 10:23:01;;;;;;;2.92;2.72;;;;;;;24.77;20.63;98603.63;5114219;27;20190;-59
2023/04/13 10:25:40;;;;;;;4.07;2.63;;;;;;;24.61;20.92;98585.75;5122161;27;20205;-60
2023/04/13 10:28:45;;;;;;;5.43;2.35;;;;;;;24.39;21.23;98594.19;5121152;27;20198;-59
2023/04/13 10:31:24;;;;;;;2.70;2.50;;;;;;;24.31;21.13;98589.69;5117321;27;20274;-58
2023/04/13 10:34:08;;;;;;;4.43;2.80;;;;;;;24.17;21.47;98587.53;5121537;27;20671;-53
2023/04/13 10:36:53;;;;;;;3.78;2.60;;;;;;;24.32;21.58;98586.03;5120020;27;20190;-56
2023/04/13 10:39:42;;;;;;;3.60;2.53;;;;;;;24.04;21.73;98582.59;5118725;27;20194;-56
2023/04/13 10:42:29;;;;;;;3.70;2.60;;;;;;;23.93;22.50;98579.38;5120218;27;20710;-56
2023/04/13 10:45:34;;;;;;;4.57;3.13;;;;;;;23.28;22.89;98578.63;5120691;27;20694;-56
2023/04/13 10:48:29;;;;;;;5.57;2.92;;;;;;;22.99;23.37;98573.47;5119064;27;20205;-55
2023/04/13 10:51:04;;;;;;;5.57;3.20;;;;;;;23.00;23.45;98553.97;5119563;27;20186;-54
2023/04/13 10:53:51;;;;;;;5.18;2.95;;;;;;;22.84;23.54;98570.44;5119439;27;20191;-53
2023/04/13 10:56:38;;;;;;;5.28;3.10;;;;;;;22.64;23.57;98558.22;5121213;27;20197;-52
2023/04/13 10:59:27;;;;;;;4.72;2.83;;;;;;;22.85;23.47;98574.75;5116161;27;20195;-53
2023/04/13 11:02:27;;;;;;;4.50;3.05;;;;;;;23.06;23.66;98563.97;5120919;27;20210;-55
2023/04/13 11:05:12;;;;;;;4.35;2.78;;;;;;;23.21;23.93;98572.25;5116804;27;20190;-54
2023/04/13 11:07:58;;;;;;;4.20;2.83;;;;;;;23.29;23.52;98564.41;5109028;28;20226;-55
2023/04/13 11:10:49;;;;;;;2.63;2.42;;;;;;;23.15;23.84;98555.97;5109225;28;20195;-56
2023/04/13 11:13:39;;;;;;;2.72;2.30;;;;;;;22.74;24.37;98564.31;5119881;27;20196;-55
2023/04/13 11:19:33;;;;;;;3.80;2.25;;;;;;;22.86;24.93;98557.06;5117257;27;20230;-52
2023/04/13 11:22:19;;;;;;;2.53;2.33;;;;;;;22.94;24.63;98550.06;5120260;27;20213;-52
2023/04/13 11:25:10;;;;;;;4.88;2.65;;;;;;;23.02;24.73;98541.44;5119033;27;20202;-53
2023/04/13 11:28:03;;;;;;;4.40;3.00;;;;;;;22.88;25.05;98548.03;5120470;27;20289;-53
2023/04/13 11:30:54;;;;;;;3.28;2.72;;;;;;;22.90;25.11;98538.13;5119616;27;20226;-52
2023/04/13 11:33:42;;;;;;;3.72;2.60;;;;;;;22.84;24.63;98544.00;5117977;27;20199;-53
2023/04/13 11:36:37;;;;;;;3.50;2.40;;;;;;;22.71;24.73;98535.50;5118954;27;20191;-52
2023/04/13 11:39:38;;;;;;;;;;;;;;;;;;;;;
2023/04/13 11:42:29;;;;;;;4.93;2.60;;;;;;;22.80;25.16;98522.28;5115055;27;20211;-52
2023/04/13 11:45:20;;;;;;;2.85;2.65;;;;;;;22.57;25.07;98518.31;5120743;27;20289;-53
2023/04/13 11:48:18;;;;;;;3.10;2.83;;;;;;;22.57;25.34;98520.13;5118798;27;20203;-53
2023/04/13 11:51:11;;;;;;;2.92;2.40;;;;;;;22.49;25.30;98526.09;5117691;27;20191;-53
2023/04/13 11:54:11;;;;;;;2.50;2.30;;;;;;;22.18;25.49;98517.56;5119838;27;20194;-52
2023/04/13 11:57:04;;;;;;;3.42;3.13;;;;;;;22.01;26.04;98518.25;5119902;27;20190;-53
2023/04/13 11:59:58;;;;;;;4.47;2.63;;;;;;;22.00;25.93;98511.31;5119384;27;20218;-52
2023/04/13 12:06:02;;;;;;;5.72;2.05;;;;;;;22.27;25.52;98511.41;5106349;28;20197;-52
2023/04/13 12:08:42;;;;;;;3.03;2.72;;;;;;;22.29;25.82;98505.97;5106975;28;20520;-53
2023/04/13 12:11:48;;;;;;;2.55;2.35;;;;;;;22.22;26.53;98503.09;5107880;28;20251;-53
2023/04/13 12:14:40;;;;;;;2.95;2.63;;;;;;;22.13;26.59;98493.34;5108129;28;20229;-53
2023/04/13 12:17:32;;;;;;;3.28;2.95;;;;;;;22.04;26.77;98499.47;5119841;27;20197;-56
2023/04/13 12:20:11;;;;;;;7.45;2.75;;;;;;;21.95;26.86;98487.09;5112720;28;20276;-56
2023/04/13 12:22:53;;;;;;;2.65;2.45;;;;;;;21.91;26.95;98490.97;5113381;27;20201;-54
2023/04/13 12:25:34;;;;;;;6.47;2.47;;;;;;;21.89;27.32;98488.50;5113365;28;20200;-56
2023/04/13 12:28:03;;;;;;;6.20;2.50;;;;;;;21.80;27.05;98485.84;5120144;28;20206;-59
2023/04/13 12:30:49;;;;;;;6.45;2.65;;;;;;;21.85;27.58;98483.63;5113342;28;20659;-56
2023/04/13 12:33:34;;;;;;;10.20;6.75;;;;;;;21.96;27.32;98480.84;5113127;28;20193;-56
2023/04/13 12:36:15;;;;;;;3.08;2.88;;;;;;;21.90;27.06;98479.56;5114088;28;20624;-53
2023/04/13 12:38:48;;;;;;;4.60;3.10;;;;;;;21.97;27.23;98477.22;5121226;27;20198;-52
2023/04/13 12:41:28;;;;;;;3.05;2.85;;;;;;;21.92;26.92;98464.41;5113256;28;20206;-51
2023/04/13 12:44:14;;;;;;;2.85;2.65;;;;;;;22.17;26.67;98475.41;5113463;28;20209;-57
2023/04/13 12:46:55;;;;;;;3.22;2.92;;;;;;;22.15;26.82;98475.53;5119716;28;20186;-51
2023/04/13 12:49:31;;;;;;;3.75;3.30;;;;;;;22.08;27.06;98472.66;5113699;28;20193;-51
2023/04/13 12:52:06;;;;;;;2.60;2.40;;;;;;;22.08;26.38;98471.81;5107108;28;20191;-51
2023/04/13 12:54:49;;;;;;;4.80;2.33;;;;;;;22.07;27.27;98468.31;5109409;28;20753;-52
2023/04/13 12:57:39;;;;;;;4.50;2.67;;;;;;;22.01;27.40;98462.75;5110715;28;20191;-52
2023/04/13 13:00:43;;;;;;;2.97;2.75;;;;;;;21.91;27.42;98460.09;5120883;27;20190;-53
2023/04/13 13:03:38;;;;;;;3.58;2.30;;;;;;;21.88;27.62;98457.78;5122070;27;20194;-54
2023/04/13 13:06:28;;;;;;;3.58;2.60;;;;;;;21.85;27.68;98462.50;5117147;27;20190;-52
2023/04/13 13:09:17;;;;;;;2.80;2.60;;;;;;;21.85;27.86;98451.94;5120659;27;20227;-52
2023/04/13 13:12:01;;;;;;;2.97;2.78;;;;;;;21.84;27.76;98451.09;5119569;27;20196;-53
2023/04/13 13:14:41;;;;;;;2.90;2.67;;;;;;;21.81;27.74;98454.00;5117865;27;20554;-53
2023/04/13 13:17:18;;;;;;;2.47;2.28;;;;;;;21.72;28.07;98453.03;5119577;27;20269;-53
2023/04/13 13:20:09;;;;;;;3.10;2.72;;;;;;;21.76;27.78;98455.41;5114360;27;20205;-52
2023/04/13 13:22:52;;;;;;;7.43;3.30;;;;;;;21.65;28.17;98453.75;5121974;27;20223;-56
2023/04/13 13:25:49;;;;;;;4.80;2.78;;;;;;;21.63;28.54;98450.41;5111029;28;20187;-53
2023/04/13 13:28:39;;;;;;;3.15;2.95;;;;;;;21.63;28.45;98445.97;5110172;28;20221;-53
2023/04/13 13:31:33;;;;;;;3.70;2.88;;;;;;;21.63;28.76;98447.78;5110909;28;20675;-53
2023/04/13 13:34:19;;;;;;;2.88;2.55;;;;;;;21.73;28.65;98438.88;5111397;28;20217;-52
2023/04/13 13:37:02;;;;;;;2.72;2.50;;;;;;;21.76;28.45;98442.22;5113310;27;20218;-53
2023/04/13 13:39:40;;;;;;;2.72;2.53;;;;;;;21.74;28.40;98435.25;5117693;27;20194;-53
2023/04/13 13:42:28;;;;;;;2.78;2.58;;;;;;;21.72;28.82;98433.72;5122081;27;20218;-55
2023/04/13 13:45:20;;;;;;;2.90;2.70;;;;;;;21.68;28.94;98441.09;5122222;27;20187;-52
2023/04/13 13:48:05;;;;;;;3.95;2.30;;;;;;;21.64;28.96;98436.25;5120588;27;20201;-53
2023/04/13 13:51:05;;;;;;;2.40;2.30;;;;;;;21.77;28.98;98439.44;5110534;27;20201;-55
2023/04/13 13:53:53;;;;;;;2.42;2.25;;;;;;;21.79;28.62;98439.25;5110955;28;20195;-53
2023/04/13 13:56:41;;;;;;;2.28;2.10;;;;;;;21.74;28.92;98432.63;5111294;28;20205;-51
2023/04/13 13:59:15;;;;;;;2.95;2.67;;;;;;;21.61;28.71;98421.50;5114865;27;20201;-53
2023/04/13 14:02:00;;;;;;;3.03;2.70;;;;;;;21.66;28.90;98427.22;5129887;27;20262;-53
2023/04/13 14:04:41;;;;;;;5.07;3.08;;;;;;;21.65;28.96;98422.91;5133053;27;20282;-53
2023/04/13 14:07:20;;;;;;;3.13;2.10;;;;;;;21.76;28.64;98423.72;5131770;27;20186;-53
2023/04/13 14:10:09;;;;;;;3.17;2.97;;;;;;;21.74;28.94;98429.97;5150060;27;20716;-53
2023/04/13 14:12:55;;;;;;;3.85;2.38;;;;;;;21.77;28.87;98420.09;5152547;27;20200;-53
2023/04/13 14:15:39;;;;;;;3.08;2.08;;;;;;;21.81;28.81;98421.47;5152370;27;20208;-52
2023/04/13 14:21:21;;;;;;;3.75;2.20;;;;;;;21.83;28.54;98415.06;5115329;27;20219;-51
2023/04/13 14:24:21;;;;;;;3.58;2.33;;;;;;;21.90;28.76;98417.97;5110870;28;20203;-56
2023/04/13 14:27:07;;;;;;;2.72;1.85;;;;;;;21.92;28.77;98419.50;5110729;28;20206;-52
2023/04/13 14:32:55;;;;;;;1.85;1.70;;;;;;;21.80;28.89;98403.94;5102559;28;20202;-52